Time;durP1;ratioP1;P1;durP2;ratioP2;P2;SDS_P1;SDS_P2;PMS_P1;PMS_P2;Temp;Humidity;BMP_temperature;BMP_pressure;BME280_temperature;BME280_humidity;BME280_pressure;Samples;Min_cycle;Max_cycle;Signal;HPM_P1;HPM_P2
2021/06/13 00:01:16;;;;;;;20.63;8.40;;;;;;;;;;5059313;28;20187;-73
2021/06/13 00:03:41;;;;;;;18.30;9.17;;;;;;;;;;5058319;28;20479;-72
2021/06/13 00:06:06;;;;;;;14.83;8.10;;;;;;;;;;5057484;28;20227;-73
2021/06/13 00:08:32;;;;;;;17.60;9.27;;;;;;;;;;5053865;28;20339;-72
2021/06/13 00:10:57;;;;;;;16.63;8.33;;;;;;;;;;5062152;28;20175;-73
2021/06/13 00:13:23;;;;;;;14.43;7.93;;;;;;;;;;5064740;28;20285;-73
2021/06/13 00:15:49;;;;;;;17.90;7.57;;;;;;;;;;5059297;28;20234;-73
2021/06/13 00:18:14;;;;;;;15.67;8.37;;;;;;;;;;5052737;28;20723;-72
2021/06/13 00:20:39;;;;;;;17.70;8.73;;;;;;;;;;5058527;28;20793;-73
2021/06/13 00:23:05;;;;;;;22.20;9.63;;;;;;;;;;5061805;28;20701;-73
2021/06/13 00:25:30;;;;;;;16.77;8.43;;;;;;;;;;5055750;28;20193;-77
2021/06/13 00:27:55;;;;;;;16.83;9.43;;;;;;;;;;5056970;28;20177;-74
2021/06/13 00:30:20;;;;;;;21.23;8.83;;;;;;;;;;5055495;28;20208;-73
2021/06/13 00:32:46;;;;;;;25.90;9.50;;;;;;;;;;5059022;28;20165;-73
2021/06/13 00:35:12;;;;;;;16.40;7.57;;;;;;;;;;5054769;28;20347;-73
2021/06/13 00:37:37;;;;;;;16.37;8.47;;;;;;;;;;5050690;28;20188;-73
2021/06/13 00:40:03;;;;;;;25.13;9.70;;;;;;;;;;5059113;28;20621;-73
2021/06/13 00:42:28;;;;;;;13.30;8.17;;;;;;;;;;5051695;28;20185;-73
2021/06/13 00:44:53;;;;;;;16.90;8.03;;;;;;;;;;5056179;28;20246;-73
2021/06/13 00:47:18;;;;;;;23.80;8.87;;;;;;;;;;5053238;28;20185;-73
2021/06/13 00:49:44;;;;;;;14.33;8.20;;;;;;;;;;5056936;28;20184;-73
2021/06/13 00:52:09;;;;;;;21.03;10.50;;;;;;;;;;5058925;28;20200;-74
2021/06/13 00:54:34;;;;;;;21.07;9.80;;;;;;;;;;5055910;28;20207;-73
2021/06/13 00:57:00;;;;;;;16.13;8.80;;;;;;;;;;5057189;28;20189;-73
2021/06/13 00:59:25;;;;;;;15.93;9.20;;;;;;;;;;5065212;28;20339;-74
2021/06/13 01:01:50;;;;;;;20.57;9.10;;;;;;;;;;5056503;28;20196;-73
2021/06/13 01:04:15;;;;;;;16.27;8.60;;;;;;;;;;5058424;28;20211;-73
2021/06/13 01:06:48;;;;;;;16.27;8.47;;;;;;;;;;5064034;28;20212;-73
2021/06/13 01:09:16;;;;;;;22.40;9.13;;;;;;;;;;5057258;28;20181;-73
2021/06/13 01:11:44;;;;;;;15.23;8.70;;;;;;;;;;5058192;28;20264;-73
2021/06/13 01:14:09;;;;;;;15.10;8.20;;;;;;;;;;5055526;28;20201;-73
2021/06/13 01:16:34;;;;;;;13.97;8.17;;;;;;;;;;5061223;28;20543;-73
2021/06/13 01:19:02;;;;;;;21.02;9.20;;;;;;;;;;5060907;28;20192;-73
2021/06/13 01:21:45;;;;;;;17.30;8.50;;;;;;;;;;5057139;28;20193;-73
2021/06/13 01:24:29;;;;;;;13.43;8.53;;;;;;;;;;5057159;28;20202;-72
2021/06/13 01:27:12;;;;;;;19.87;9.90;;;;;;;;;;5058227;28;20291;-73
2021/06/13 01:29:38;;;;;;;15.33;8.83;;;;;;;;;;5053444;28;20178;-73
2021/06/13 01:32:08;;;;;;;23.30;9.90;;;;;;;;;;5054252;28;20232;-73
2021/06/13 01:34:36;;;;;;;18.13;9.00;;;;;;;;;;5053189;28;20208;-73
2021/06/13 01:37:03;;;;;;;17.03;9.17;;;;;;;;;;5053252;28;20174;-72
2021/06/13 01:39:29;;;;;;;17.97;8.77;;;;;;;;;;5056042;28;20588;-72
2021/06/13 01:41:56;;;;;;;16.83;8.77;;;;;;;;;;5056451;28;20255;-73
2021/06/13 01:44:22;;;;;;;15.10;9.33;;;;;;;;;;5057374;28;20197;-75
2021/06/13 01:46:48;;;;;;;20.63;10.37;;;;;;;;;;5054666;28;20686;-73
2021/06/13 01:49:13;;;;;;;15.47;8.70;;;;;;;;;;5056880;28;20181;-73
2021/06/13 01:51:39;;;;;;;19.53;9.53;;;;;;;;;;5066886;28;20266;-73
2021/06/13 01:54:06;;;;;;;18.23;9.90;;;;;;;;;;5062353;28;20185;-73
2021/06/13 01:56:32;;;;;;;19.33;9.63;;;;;;;;;;5056726;28;20181;-73
2021/06/13 01:58:58;;;;;;;20.30;9.37;;;;;;;;;;5057834;28;20664;-73
2021/06/13 02:01:25;;;;;;;19.03;9.07;;;;;;;;;;5063216;28;20208;-73
2021/06/13 02:03:51;;;;;;;18.27;9.90;;;;;;;;;;5067113;28;20223;-73
2021/06/13 02:06:18;;;;;;;20.40;9.23;;;;;;;;;;5058652;28;20197;-73
2021/06/13 02:08:45;;;;;;;21.33;10.50;;;;;;;;;;5062756;28;20182;-73
2021/06/13 02:11:11;;;;;;;16.43;10.00;;;;;;;;;;5067286;28;20334;-73
2021/06/13 02:13:38;;;;;;;17.30;9.10;;;;;;;;;;5066231;28;20197;-73
2021/06/13 02:16:04;;;;;;;18.50;9.87;;;;;;;;;;5058803;28;20216;-73
2021/06/13 02:18:30;;;;;;;17.33;9.47;;;;;;;;;;5063412;28;20189;-73
2021/06/13 02:20:58;;;;;;;19.57;10.17;;;;;;;;;;5066369;28;20276;-73
2021/06/13 02:23:24;;;;;;;17.53;10.33;;;;;;;;;;5061387;28;20197;-73
2021/06/13 02:25:50;;;;;;;22.03;10.27;;;;;;;;;;5060450;28;20227;-74
2021/06/13 02:28:16;;;;;;;19.80;10.03;;;;;;;;;;5061581;28;20638;-73
2021/06/13 02:30:41;;;;;;;19.03;10.20;;;;;;;;;;5063975;28;20253;-73
2021/06/13 02:33:08;;;;;;;16.93;9.60;;;;;;;;;;5060105;28;20678;-73
2021/06/13 02:35:33;;;;;;;19.80;10.73;;;;;;;;;;5067220;28;20187;-73
2021/06/13 02:37:59;;;;;;;19.73;11.07;;;;;;;;;;5068932;28;20569;-73
2021/06/13 02:40:25;;;;;;;18.47;11.10;;;;;;;;;;5058671;28;20650;-73
2021/06/13 02:42:50;;;;;;;18.47;10.23;;;;;;;;;;5051745;28;20191;-73
2021/06/13 02:45:20;;;;;;;15.80;10.03;;;;;;;;;;5061343;28;20212;-73
2021/06/13 02:47:45;;;;;;;16.00;9.40;;;;;;;;;;5052919;28;20666;-73
2021/06/13 02:50:11;;;;;;;15.17;9.90;;;;;;;;;;5062642;28;20264;-73
2021/06/13 02:52:41;;;;;;;17.37;9.23;;;;;;;;;;5058854;28;21634;-73
2021/06/13 02:55:09;;;;;;;18.60;10.23;;;;;;;;;;5059267;28;20299;-72
2021/06/13 02:57:58;;;;;;;14.43;8.10;;;;;;;;;;5058187;28;20647;-73
2021/06/13 03:00:24;;;;;;;15.60;8.80;;;;;;;;;;5050528;28;20208;-73
2021/06/13 03:02:51;;;;;;;15.33;9.07;;;;;;;;;;5063997;28;20188;-73
2021/06/13 03:05:17;;;;;;;16.67;11.20;;;;;;;;;;5059011;28;20184;-73
2021/06/13 03:07:44;;;;;;;18.70;9.87;;;;;;;;;;5062863;28;20185;-73
2021/06/13 03:10:10;;;;;;;19.47;12.33;;;;;;;;;;5064946;28;20177;-72
2021/06/13 03:12:35;;;;;;;22.07;10.63;;;;;;;;;;5060378;28;20181;-72
2021/06/13 03:15:01;;;;;;;20.63;10.83;;;;;;;;;;5062147;28;20266;-72
2021/06/13 03:17:28;;;;;;;17.67;8.97;;;;;;;;;;5063047;28;20442;-72
2021/06/13 03:19:53;;;;;;;20.83;11.30;;;;;;;;;;5061854;28;20229;-72
2021/06/13 03:22:20;;;;;;;16.40;10.10;;;;;;;;;;5060155;28;20336;-72
2021/06/13 03:24:47;;;;;;;20.90;11.40;;;;;;;;;;5059162;28;20201;-72
2021/06/13 03:27:12;;;;;;;21.53;11.33;;;;;;;;;;5059748;28;20213;-72
2021/06/13 03:29:42;;;;;;;22.03;11.07;;;;;;;;;;5060699;28;20185;-72
2021/06/13 03:32:08;;;;;;;21.20;10.87;;;;;;;;;;5062792;28;20263;-73
2021/06/13 03:34:33;;;;;;;18.77;10.43;;;;;;;;;;5064392;28;20239;-73
2021/06/13 03:36:59;;;;;;;19.87;12.17;;;;;;;;;;5062417;28;20205;-73
2021/06/13 03:39:24;;;;;;;22.97;10.73;;;;;;;;;;5057366;28;20576;-73
2021/06/13 03:41:50;;;;;;;18.10;10.60;;;;;;;;;;5063100;28;20215;-73
2021/06/13 03:44:15;;;;;;;22.50;9.40;;;;;;;;;;5054894;28;20201;-73
2021/06/13 03:46:41;;;;;;;16.73;10.10;;;;;;;;;;5057962;28;20210;-73
2021/06/13 03:49:07;;;;;;;17.73;10.10;;;;;;;;;;5050810;28;20207;-73
2021/06/13 03:51:32;;;;;;;19.83;10.10;;;;;;;;;;5051327;28;20199;-73
2021/06/13 03:53:58;;;;;;;20.97;9.87;;;;;;;;;;5058662;28;20192;-73
2021/06/13 03:56:25;;;;;;;17.60;10.53;;;;;;;;;;5062861;28;20281;-72
2021/06/13 03:58:51;;;;;;;16.83;10.37;;;;;;;;;;5063382;28;20189;-73
2021/06/13 04:01:17;;;;;;;17.17;10.83;;;;;;;;;;5059848;28;20230;-72
2021/06/13 04:03:45;;;;;;;24.80;10.97;;;;;;;;;;5062525;28;20212;-72
2021/06/13 04:06:11;;;;;;;19.97;10.23;;;;;;;;;;5062755;28;20196;-75
2021/06/13 04:08:37;;;;;;;19.47;10.30;;;;;;;;;;5065056;28;20185;-73
2021/06/13 04:11:04;;;;;;;20.70;10.57;;;;;;;;;;5056984;28;20765;-73
2021/06/13 04:13:29;;;;;;;18.27;10.23;;;;;;;;;;5066658;28;20283;-73
2021/06/13 04:15:55;;;;;;;20.73;10.60;;;;;;;;;;5061765;28;20252;-73
2021/06/13 04:18:20;;;;;;;18.17;10.50;;;;;;;;;;5067508;28;20647;-74
2021/06/13 04:20:46;;;;;;;17.67;10.63;;;;;;;;;;5056888;28;20177;-73
2021/06/13 04:23:15;;;;;;;17.07;10.17;;;;;;;;;;5065837;28;20205;-73
2021/06/13 04:25:40;;;;;;;17.10;9.33;;;;;;;;;;5056821;28;20194;-73
2021/06/13 04:28:06;;;;;;;18.13;10.27;;;;;;;;;;5067747;28;20181;-73
2021/06/13 04:30:31;;;;;;;18.07;9.67;;;;;;;;;;5054174;28;20185;-74
2021/06/13 04:32:57;;;;;;;18.30;9.50;;;;;;;;;;5064144;28;20243;-73
2021/06/13 04:35:22;;;;;;;13.63;8.75;;;;;;;;;;5057990;28;20181;-73
2021/06/13 04:37:47;;;;;;;14.00;8.13;;;;;;;;;;5064280;28;20206;-73
2021/06/13 04:40:12;;;;;;;16.17;8.48;;;;;;;;;;5057048;28;20255;-73
2021/06/13 04:42:38;;;;;;;18.88;8.93;;;;;;;;;;5059996;28;20211;-73
2021/06/13 04:45:08;;;;;;;13.57;8.57;;;;;;;;;;5055530;28;20185;-72
2021/06/13 04:47:33;;;;;;;12.38;7.68;;;;;;;;;;5061360;28;20264;-74
2021/06/13 04:49:58;;;;;;;11.65;7.40;;;;;;;;;;5056610;28;20703;-73
2021/06/13 04:52:26;;;;;;;13.25;7.18;;;;;;;;;;5061164;28;20172;-73
2021/06/13 04:55:10;;;;;;;12.38;8.38;;;;;;;;;;5055309;28;20196;-73
2021/06/13 04:57:38;;;;;;;17.35;7.68;;;;;;;;;;5068113;28;20254;-73
2021/06/13 05:00:04;;;;;;;13.50;8.00;;;;;;;;;;5055884;28;20201;-73
2021/06/13 05:02:29;;;;;;;16.45;7.22;;;;;;;;;;5038520;28;20212;-74
2021/06/13 05:04:55;;;;;;;10.68;7.28;;;;;;;;;;5049927;28;20203;-74
2021/06/13 05:07:21;;;;;;;14.00;7.57;;;;;;;;;;5051468;28;20686;-73
2021/06/13 05:09:46;;;;;;;11.55;6.43;;;;;;;;;;5055251;28;20195;-74
2021/06/13 05:12:11;;;;;;;13.32;8.40;;;;;;;;;;5051726;28;20255;-72
2021/06/13 05:14:36;;;;;;;14.90;8.45;;;;;;;;;;5051500;28;20590;-72
2021/06/13 05:17:02;;;;;;;15.35;6.97;;;;;;;;;;5050062;28;20180;-72
2021/06/13 05:19:27;;;;;;;11.10;6.82;;;;;;;;;;5052571;28;20196;-72
2021/06/13 05:21:52;;;;;;;13.13;7.10;;;;;;;;;;5050789;28;20819;-73
2021/06/13 05:24:17;;;;;;;14.63;7.35;;;;;;;;;;5053099;28;20272;-72
2021/06/13 05:26:43;;;;;;;12.75;7.45;;;;;;;;;;5053415;28;20205;-73
2021/06/13 05:29:08;;;;;;;14.43;6.55;;;;;;;;;;5063021;28;20205;-75
2021/06/13 05:31:33;;;;;;;12.93;6.50;;;;;;;;;;5062272;28;20678;-73
2021/06/13 05:33:58;;;;;;;14.57;6.40;;;;;;;;;;5053788;28;20291;-72
2021/06/13 05:36:23;;;;;;;13.80;6.20;;;;;;;;;;5053604;28;20181;-72
2021/06/13 05:38:49;;;;;;;12.77;6.20;;;;;;;;;;5058425;28;20312;-75
2021/06/13 05:41:14;;;;;;;9.68;5.60;;;;;;;;;;5055029;28;20925;-74
2021/06/13 05:43:40;;;;;;;11.10;6.05;;;;;;;;;;5052545;28;20229;-73
2021/06/13 05:46:05;;;;;;;13.00;6.45;;;;;;;;;;5055382;28;20202;-72
2021/06/13 05:48:30;;;;;;;12.05;5.88;;;;;;;;;;5049895;28;20216;-73
2021/06/13 05:50:56;;;;;;;12.90;6.63;;;;;;;;;;5058138;28;21656;-72
2021/06/13 05:53:21;;;;;;;16.35;6.55;;;;;;;;;;5051940;28;20196;-72
2021/06/13 05:55:46;;;;;;;10.45;5.75;;;;;;;;;;5053766;28;20184;-73
2021/06/13 05:58:12;;;;;;;19.45;6.40;;;;;;;;;;5055891;28;20189;-72
2021/06/13 06:00:37;;;;;;;14.65;6.43;;;;;;;;;;5062395;28;20798;-72
2021/06/13 06:03:03;;;;;;;10.63;5.07;;;;;;;;;;5064621;28;20511;-74
2021/06/13 06:05:30;;;;;;;11.88;5.32;;;;;;;;;;5058792;28;20296;-73
2021/06/13 06:07:58;;;;;;;9.23;4.72;;;;;;;;;;5055106;28;20181;-73
2021/06/13 06:10:24;;;;;;;8.20;4.60;;;;;;;;;;5055650;28;20173;-74
2021/06/13 06:12:53;;;;;;;9.55;4.57;;;;;;;;;;5055606;28;20184;-73
2021/06/13 06:15:19;;;;;;;10.52;4.70;;;;;;;;;;5058518;28;20177;-73
2021/06/13 06:17:44;;;;;;;13.88;5.45;;;;;;;;;;5054472;28;20204;-72
2021/06/13 06:20:14;;;;;;;11.07;4.93;;;;;;;;;;5060237;28;20173;-72
2021/06/13 06:22:39;;;;;;;14.00;5.50;;;;;;;;;;5055754;28;20178;-73
2021/06/13 06:25:08;;;;;;;10.43;4.57;;;;;;;;;;5062926;28;20176;-73
2021/06/13 06:27:34;;;;;;;10.63;4.72;;;;;;;;;;5057672;28;20529;-71
2021/06/13 06:29:59;;;;;;;6.93;4.22;;;;;;;;;;5053747;28;20189;-73
2021/06/13 06:32:24;;;;;;;11.82;5.28;;;;;;;;;;5054445;28;20182;-73
2021/06/13 06:34:50;;;;;;;8.35;4.72;;;;;;;;;;5053975;28;20690;-71
2021/06/13 06:37:15;;;;;;;8.63;4.32;;;;;;;;;;5062183;28;20181;-72
2021/06/13 06:39:40;;;;;;;9.75;4.65;;;;;;;;;;5062510;28;20569;-72
2021/06/13 06:42:06;;;;;;;10.82;5.28;;;;;;;;;;5055379;28;20180;-73
2021/06/13 06:44:31;;;;;;;9.02;4.75;;;;;;;;;;5057725;28;20208;-72
2021/06/13 06:47:01;;;;;;;10.43;4.53;;;;;;;;;;5053889;28;20304;-72
2021/06/13 06:49:27;;;;;;;9.00;4.10;;;;;;;;;;5054527;28;20177;-72
2021/06/13 06:51:52;;;;;;;7.68;4.05;;;;;;;;;;5053367;28;20181;-72
2021/06/13 06:54:17;;;;;;;9.87;4.40;;;;;;;;;;5051144;28;20639;-72
2021/06/13 06:56:42;;;;;;;8.17;4.37;;;;;;;;;;5051502;28;20559;-72
2021/06/13 06:59:07;;;;;;;5.77;3.73;;;;;;;;;;5051261;28;20447;-71
2021/06/13 07:01:33;;;;;;;9.23;4.10;;;;;;;;;;5051562;28;20523;-71
2021/06/13 07:03:58;;;;;;;7.30;3.58;;;;;;;;;;5055575;28;20550;-71
2021/06/13 07:06:23;;;;;;;8.90;4.10;;;;;;;;;;5052191;28;20204;-72
2021/06/13 07:08:48;;;;;;;6.95;4.07;;;;;;;;;;5052503;28;20448;-72
2021/06/13 07:11:13;;;;;;;5.90;3.30;;;;;;;;;;5054958;28;20548;-72
2021/06/13 07:13:39;;;;;;;6.57;3.67;;;;;;;;;;5057413;28;20603;-72
2021/06/13 07:16:04;;;;;;;8.57;3.70;;;;;;;;;;5057596;28;20437;-72
2021/06/13 07:18:29;;;;;;;9.88;3.97;;;;;;;;;;5054978;28;20435;-72
2021/06/13 07:20:55;;;;;;;8.98;4.20;;;;;;;;;;5058201;28;20183;-72
2021/06/13 07:23:21;;;;;;;5.50;3.28;;;;;;;;;;5049632;28;20226;-72
2021/06/13 07:25:47;;;;;;;8.88;3.78;;;;;;;;;;5059191;28;21746;-72
2021/06/13 07:28:12;;;;;;;8.45;4.55;;;;;;;;;;5057469;28;20617;-73
2021/06/13 07:30:37;;;;;;;6.75;3.80;;;;;;;;;;5052484;28;20206;-73
2021/06/13 07:33:03;;;;;;;8.98;4.03;;;;;;;;;;5052777;28;20200;-72
2021/06/13 07:35:29;;;;;;;10.45;5.30;;;;;;;;;;5051108;28;20191;-72
2021/06/13 07:37:54;;;;;;;9.75;5.45;;;;;;;;;;5053063;28;20185;-73
2021/06/13 07:40:21;;;;;;;9.87;4.47;;;;;;;;;;5057614;28;20197;-73
2021/06/13 07:42:46;;;;;;;12.63;6.03;;;;;;;;;;5053794;28;20507;-72
2021/06/13 07:45:12;;;;;;;8.80;4.73;;;;;;;;;;5053018;28;20186;-71
2021/06/13 07:47:38;;;;;;;8.27;4.35;;;;;;;;;;5054087;28;20463;-72
2021/06/13 07:50:07;;;;;;;8.40;5.20;;;;;;;;;;5057676;28;20172;-72
2021/06/13 07:52:33;;;;;;;8.60;4.78;;;;;;;;;;5051844;28;20240;-72
2021/06/13 07:54:58;;;;;;;7.18;4.30;;;;;;;;;;5054059;28;20291;-72
2021/06/13 07:57:23;;;;;;;8.05;4.22;;;;;;;;;;5052506;28;20846;-72
2021/06/13 07:59:49;;;;;;;8.10;4.45;;;;;;;;;;5053979;28;20176;-72
2021/06/13 08:02:14;;;;;;;7.57;4.07;;;;;;;;;;5050254;28;20670;-72
2021/06/13 08:04:43;;;;;;;6.80;3.80;;;;;;;;;;5053466;28;20197;-72
2021/06/13 08:07:09;;;;;;;11.07;4.78;;;;;;;;;;5050811;28;20835;-74
2021/06/13 08:09:34;;;;;;;10.23;4.30;;;;;;;;;;5047377;28;20688;-72
2021/06/13 08:11:59;;;;;;;6.20;3.72;;;;;;;;;;5050184;28;20434;-72
2021/06/13 08:14:25;;;;;;;7.93;4.00;;;;;;;;;;5048833;28;20228;-72
2021/06/13 08:16:50;;;;;;;7.55;4.43;;;;;;;;;;5051071;28;20181;-72
2021/06/13 08:19:15;;;;;;;7.13;4.43;;;;;;;;;;5051226;28;20270;-73
2021/06/13 08:21:40;;;;;;;7.23;3.73;;;;;;;;;;5051183;28;20444;-72
2021/06/13 08:24:06;;;;;;;8.50;4.13;;;;;;;;;;5050922;28;20496;-72
2021/06/13 08:26:32;;;;;;;5.72;3.67;;;;;;;;;;5057741;28;20663;-72
2021/06/13 08:29:01;;;;;;;6.97;4.15;;;;;;;;;;5050441;28;20238;-72
2021/06/13 08:31:26;;;;;;;7.30;3.60;;;;;;;;;;5052962;28;20169;-73
2021/06/13 08:33:51;;;;;;;6.00;4.28;;;;;;;;;;5053497;28;20225;-72
2021/06/13 08:36:17;;;;;;;10.23;4.47;;;;;;;;;;5052709;28;20195;-72
2021/06/13 08:38:42;;;;;;;6.88;3.65;;;;;;;;;;5054842;28;20936;-72
2021/06/13 08:41:07;;;;;;;6.53;3.67;;;;;;;;;;5053102;28;20177;-72
2021/06/13 08:43:33;;;;;;;4.90;3.55;;;;;;;;;;5050811;28;20204;-72
2021/06/13 08:46:00;;;;;;;5.82;3.60;;;;;;;;;;5049009;28;20207;-72
2021/06/13 08:48:29;;;;;;;5.85;3.78;;;;;;;;;;5051573;28;21662;-72
2021/06/13 08:50:56;;;;;;;7.55;3.95;;;;;;;;;;5049907;28;20267;-72
2021/06/13 08:53:21;;;;;;;8.52;4.00;;;;;;;;;;5052475;28;20197;-72
2021/06/13 08:55:46;;;;;;;8.23;4.28;;;;;;;;;;5058707;28;20192;-72
2021/06/13 08:58:14;;;;;;;9.47;3.50;;;;;;;;;;5055110;28;20231;-72
2021/06/13 09:00:40;;;;;;;6.57;3.70;;;;;;;;;;5056103;28;20442;-73
2021/06/13 09:03:07;;;;;;;7.93;4.00;;;;;;;;;;5054486;28;20238;-72
2021/06/13 09:05:32;;;;;;;7.07;3.80;;;;;;;;;;5054735;28;20250;-73
2021/06/13 09:07:59;;;;;;;7.70;3.87;;;;;;;;;;5054670;28;20192;-72
2021/06/13 09:10:26;;;;;;;8.98;4.78;;;;;;;;;;5057780;28;20502;-72
2021/06/13 09:12:54;;;;;;;8.65;3.92;;;;;;;;;;5055136;28;20386;-72
2021/06/13 09:15:34;;;;;;;8.35;4.05;;;;;;;;;;5057761;28;21763;-74
2021/06/13 09:17:59;;;;;;;7.85;4.20;;;;;;;;;;5068669;28;20176;-74
2021/06/13 09:20:24;;;;;;;5.23;3.80;;;;;;;;;;5064414;28;20666;-74
2021/06/13 09:23:06;;;;;;;6.97;4.43;;;;;;;;;;5073060;28;20421;-74
2021/06/13 09:25:33;;;;;;;9.10;4.93;;;;;;;;;;5066951;28;20184;-74
2021/06/13 09:28:08;;;;;;;7.93;3.80;;;;;;;;;;5061545;28;20532;-74
2021/06/13 09:30:35;;;;;;;6.30;3.28;;;;;;;;;;5053655;28;20263;-74
2021/06/13 09:33:04;;;;;;;7.75;3.25;;;;;;;;;;5055675;28;20621;-74
2021/06/13 09:35:30;;;;;;;6.70;3.92;;;;;;;;;;5051662;28;20177;-74
2021/06/13 09:38:02;;;;;;;8.15;4.25;;;;;;;;;;5059747;28;20186;-74
2021/06/13 09:40:28;;;;;;;6.82;3.85;;;;;;;;;;5061901;28;20197;-74
2021/06/13 09:42:53;;;;;;;6.97;3.87;;;;;;;;;;5058382;28;20227;-74
2021/06/13 09:45:18;;;;;;;6.63;3.53;;;;;;;;;;5054066;28;20449;-74
2021/06/13 09:47:43;;;;;;;6.10;3.63;;;;;;;;;;5054729;28;20181;-75
2021/06/13 09:50:09;;;;;;;4.20;3.00;;;;;;;;;;5055681;28;20195;-74
2021/06/13 09:52:34;;;;;;;6.90;3.38;;;;;;;;;;5053320;28;20622;-74
2021/06/13 09:55:12;;;;;;;7.87;4.57;;;;;;;;;;5059723;28;20205;-73
2021/06/13 09:57:57;;;;;;;7.97;4.57;;;;;;;;;;5051420;28;20467;-76
2021/06/13 10:00:23;;;;;;;7.63;4.10;;;;;;;;;;5051961;28;20201;-74
2021/06/13 10:02:48;;;;;;;6.47;4.00;;;;;;;;;;5055170;28;20332;-75
2021/06/13 10:05:14;;;;;;;7.00;3.30;;;;;;;;;;5057067;28;20348;-74
2021/06/13 10:07:39;;;;;;;6.55;3.83;;;;;;;;;;5056388;28;20612;-74
2021/06/13 10:10:04;;;;;;;7.60;3.47;;;;;;;;;;5059928;28;20197;-74
2021/06/13 10:12:30;;;;;;;6.60;3.58;;;;;;;;;;5055400;28;20224;-74
2021/06/13 10:14:55;;;;;;;11.43;4.82;;;;;;;;;;5059480;28;20237;-74
2021/06/13 10:17:31;;;;;;;6.97;4.07;;;;;;;;;;5052003;28;20192;-74
2021/06/13 10:19:57;;;;;;;7.45;3.97;;;;;;;;;;5054525;28;20796;-74
2021/06/13 10:22:23;;;;;;;5.32;3.40;;;;;;;;;;5055293;28;20195;-74
2021/06/13 10:24:49;;;;;;;5.47;3.40;;;;;;;;;;5060124;28;20192;-74
2021/06/13 10:27:15;;;;;;;6.00;3.35;;;;;;;;;;5056138;28;20852;-74
2021/06/13 10:29:41;;;;;;;5.13;3.38;;;;;;;;;;5060101;28;20181;-74
2021/06/13 10:32:07;;;;;;;9.70;4.10;;;;;;;;;;5055474;28;20587;-75
2021/06/13 10:34:33;;;;;;;7.07;3.17;;;;;;;;;;5057326;28;20193;-75
2021/06/13 10:36:59;;;;;;;7.88;3.53;;;;;;;;;;5054001;28;20261;-75
2021/06/13 10:39:25;;;;;;;5.30;3.22;;;;;;;;;;5060309;28;20272;-74
2021/06/13 10:41:51;;;;;;;5.10;3.20;;;;;;;;;;5055913;28;20182;-74
2021/06/13 10:44:21;;;;;;;4.43;2.58;;;;;;;;;;5060241;28;20228;-74
2021/06/13 10:46:48;;;;;;;5.20;2.95;;;;;;;;;;5062703;28;20569;-74
2021/06/13 10:49:27;;;;;;;5.72;2.92;;;;;;;;;;5066347;28;20181;-74
2021/06/13 10:52:03;;;;;;;5.07;2.80;;;;;;;;;;5055817;28;20226;-74
2021/06/13 10:54:29;;;;;;;6.45;3.63;;;;;;;;;;5057309;28;20199;-74
2021/06/13 10:57:14;;;;;;;5.03;3.22;;;;;;;;;;5074047;28;20184;-76
2021/06/13 10:59:40;;;;;;;6.57;3.40;;;;;;;;;;5080492;28;20185;-76
2021/06/13 11:02:13;;;;;;;5.60;3.38;;;;;;;;;;5080016;28;20213;-75
2021/06/13 11:04:42;;;;;;;4.90;3.55;;;;;;;;;;5085843;28;20200;-75
2021/06/13 11:07:07;;;;;;;5.10;3.10;;;;;;;;;;5089040;28;20243;-75
2021/06/13 11:09:32;;;;;;;6.43;3.38;;;;;;;;;;5086719;28;20176;-74
2021/06/13 11:11:58;;;;;;;7.10;3.40;;;;;;;;;;5085621;28;20299;-74
2021/06/13 11:14:24;;;;;;;7.80;3.75;;;;;;;;;;5083153;28;20310;-74
2021/06/13 11:16:50;;;;;;;5.65;3.85;;;;;;;;;;5084373;28;20185;-73
2021/06/13 11:19:25;;;;;;;5.18;3.05;;;;;;;;;;5077223;28;20200;-74
2021/06/13 11:22:10;;;;;;;7.15;3.50;;;;;;;;;;5065329;28;20191;-72
2021/06/13 11:24:49;;;;;;;5.57;3.33;;;;;;;;;;5057269;28;20311;-73
2021/06/13 11:27:14;;;;;;;5.25;3.47;;;;;;;;;;5052411;28;20573;-74
2021/06/13 11:29:52;;;;;;;8.50;4.03;;;;;;;;;;5059634;28;20398;-73
2021/06/13 11:32:37;;;;;;;6.95;3.47;;;;;;;;;;5058582;28;20271;-74
2021/06/13 11:35:21;;;;;;;5.78;3.75;;;;;;;;;;5055155;28;20269;-74
2021/06/13 11:37:46;;;;;;;5.32;3.33;;;;;;;;;;5056776;28;20208;-74
2021/06/13 11:40:27;;;;;;;6.67;3.83;;;;;;;;;;5054038;28;20227;-74
2021/06/13 11:43:07;;;;;;;11.02;4.38;;;;;;;;;;5055489;28;20215;-73
2021/06/13 11:45:32;;;;;;;6.57;3.63;;;;;;;;;;5066243;28;20655;-73
2021/06/13 11:48:17;;;;;;;6.87;3.90;;;;;;;;;;5058567;28;20187;-74
2021/06/13 11:50:44;;;;;;;6.82;4.07;;;;;;;;;;5056182;28;20424;-74
2021/06/13 11:53:11;;;;;;;6.53;3.20;;;;;;;;;;5054645;28;20194;-74
2021/06/13 11:55:51;;;;;;;6.60;3.50;;;;;;;;;;5055910;28;20212;-74
2021/06/13 11:58:16;;;;;;;5.57;3.50;;;;;;;;;;5053115;28;20189;-74
2021/06/13 12:00:42;;;;;;;6.32;3.20;;;;;;;;;;5055411;28;20180;-74
2021/06/13 12:03:07;;;;;;;6.33;2.97;;;;;;;;;;5052222;28;20197;-75
2021/06/13 12:05:33;;;;;;;7.03;3.33;;;;;;;;;;5057075;28;20431;-74
2021/06/13 12:07:58;;;;;;;5.15;3.17;;;;;;;;;;5053962;28;20435;-74
2021/06/13 12:10:28;;;;;;;4.57;2.95;;;;;;;;;;5052552;28;20220;-74
2021/06/13 12:13:06;;;;;;;5.10;2.90;;;;;;;;;;5052865;28;20176;-74
2021/06/13 12:15:31;;;;;;;6.28;3.22;;;;;;;;;;5059681;28;20664;-74
2021/06/13 12:17:56;;;;;;;4.65;2.95;;;;;;;;;;5054369;28;20418;-74
2021/06/13 12:20:22;;;;;;;6.03;3.40;;;;;;;;;;5051624;28;20230;-74
2021/06/13 12:23:01;;;;;;;6.57;3.75;;;;;;;;;;5052522;28;20559;-73
2021/06/13 12:28:11;;;;;;;5.60;3.63;;;;;;;;;;5050174;28;20259;-74
2021/06/13 12:30:38;;;;;;;6.43;3.72;;;;;;;;;;5054514;28;20213;-74
2021/06/13 12:33:12;;;;;;;5.85;3.60;;;;;;;;;;5054503;28;20285;-76
2021/06/13 12:35:44;;;;;;;5.38;2.70;;;;;;;;;;5059823;28;20527;-75
2021/06/13 12:38:16;;;;;;;6.07;3.63;;;;;;;;;;5050940;28;20238;-75
2021/06/13 12:40:45;;;;;;;7.07;3.17;;;;;;;;;;5058559;28;20192;-75
2021/06/13 12:43:10;;;;;;;7.43;3.13;;;;;;;;;;5050682;28;20204;-75
2021/06/13 12:45:36;;;;;;;6.85;2.80;;;;;;;;;;5053959;28;20192;-74
2021/06/13 12:48:02;;;;;;;5.03;3.00;;;;;;;;;;5053475;28;20251;-74
2021/06/13 12:50:35;;;;;;;6.40;2.83;;;;;;;;;;5057037;28;20694;-73
2021/06/13 12:53:02;;;;;;;3.70;2.60;;;;;;;;;;5057052;28;20330;-73
2021/06/13 12:55:40;;;;;;;4.78;2.95;;;;;;;;;;5059754;28;20181;-73
2021/06/13 12:58:12;;;;;;;3.78;2.83;;;;;;;;;;5051581;28;20184;-73
2021/06/13 13:00:37;;;;;;;4.65;3.20;;;;;;;;;;5062047;28;20309;-73
2021/06/13 13:03:10;;;;;;;5.07;3.10;;;;;;;;;;5049845;28;20201;-73
2021/06/13 13:05:36;;;;;;;5.25;2.47;;;;;;;;;;5054111;28;20176;-74
2021/06/13 13:08:17;;;;;;;5.35;2.60;;;;;;;;;;5050547;28;20536;-74
2021/06/13 13:10:59;;;;;;;4.88;2.50;;;;;;;;;;5050337;28;20182;-74
2021/06/13 13:13:25;;;;;;;6.88;2.50;;;;;;;;;;5056396;28;20284;-74
2021/06/13 13:15:51;;;;;;;4.18;2.20;;;;;;;;;;5058687;28;20239;-75
2021/06/13 13:18:17;;;;;;;5.88;2.85;;;;;;;;;;5049759;28;20181;-76
2021/06/13 13:20:52;;;;;;;5.18;2.42;;;;;;;;;;5050651;28;20185;-74
2021/06/13 13:23:17;;;;;;;4.13;2.50;;;;;;;;;;5049419;28;20277;-74
2021/06/13 13:25:43;;;;;;;5.88;2.45;;;;;;;;;;5050889;28;20681;-74
2021/06/13 13:28:19;;;;;;;3.92;2.17;;;;;;;;;;5053933;28;20707;-73
2021/06/13 13:30:45;;;;;;;6.95;2.67;;;;;;;;;;5049295;28;20178;-74
2021/06/13 13:33:10;;;;;;;3.83;2.30;;;;;;;;;;5054045;28;20208;-75
2021/06/13 13:35:36;;;;;;;4.27;2.30;;;;;;;;;;5062236;28;20658;-75
2021/06/13 13:38:02;;;;;;;4.97;2.50;;;;;;;;;;5059999;28;20416;-75
2021/06/13 13:40:28;;;;;;;6.88;2.90;;;;;;;;;;5055925;28;20193;-75
2021/06/13 13:42:56;;;;;;;5.13;2.50;;;;;;;;;;5054720;28;20200;-75
2021/06/13 13:45:21;;;;;;;4.68;1.77;;;;;;;;;;5053634;28;20173;-75
2021/06/13 13:47:47;;;;;;;4.53;2.72;;;;;;;;;;5052025;28;20204;-74
2021/06/13 13:50:12;;;;;;;5.90;2.60;;;;;;;;;;5056803;28;20340;-75
2021/06/13 13:52:38;;;;;;;6.10;2.30;;;;;;;;;;5050119;28;20567;-76
2021/06/13 13:55:04;;;;;;;6.30;2.70;;;;;;;;;;5055895;28;20201;-75
2021/06/13 13:57:45;;;;;;;5.15;2.35;;;;;;;;;;5056411;28;20542;-74
2021/06/13 14:00:12;;;;;;;3.63;2.28;;;;;;;;;;5063657;28;20172;-74
2021/06/13 14:02:37;;;;;;;3.58;2.42;;;;;;;;;;5057495;28;20714;-74
2021/06/13 14:05:02;;;;;;;4.33;1.97;;;;;;;;;;5054425;28;20747;-75
2021/06/13 14:07:32;;;;;;;7.00;2.70;;;;;;;;;;5053455;28;20213;-76
2021/06/13 14:09:57;;;;;;;5.68;2.22;;;;;;;;;;5056411;28;20177;-76
2021/06/13 14:12:22;;;;;;;4.47;2.63;;;;;;;;;;5054803;28;20184;-74
2021/06/13 14:14:47;;;;;;;5.60;2.60;;;;;;;;;;5057067;28;20478;-73
2021/06/13 14:17:12;;;;;;;5.07;2.47;;;;;;;;;;5055366;28;20550;-74
2021/06/13 14:19:38;;;;;;;5.17;2.70;;;;;;;;;;5055665;28;20189;-74
2021/06/13 14:22:04;;;;;;;5.07;2.60;;;;;;;;;;5056129;28;20453;-75
2021/06/13 14:24:29;;;;;;;5.65;3.13;;;;;;;;;;5058016;28;20464;-74
2021/06/13 14:26:57;;;;;;;6.75;2.55;;;;;;;;;;5058062;28;20199;-74
2021/06/13 14:29:23;;;;;;;6.82;3.30;;;;;;;;;;5057432;28;20256;-73
2021/06/13 14:31:49;;;;;;;3.55;2.20;;;;;;;;;;5066128;28;20704;-74
2021/06/13 14:34:14;;;;;;;5.15;1.90;;;;;;;;;;5065429;28;20197;-74
2021/06/13 14:36:41;;;;;;;4.50;2.03;;;;;;;;;;5073038;28;20199;-75
2021/06/13 14:39:06;;;;;;;4.07;2.10;;;;;;;;;;5064697;28;20681;-74